sensor_id;sensor_type;location;lat;lon;timestamp;P1;durP1;ratioP1;P2;durP2;ratioP2
18200;SDS011;9226;47.858;9.594;2022-08-19T00:01:49;9.13;;;5.37;;
18200;SDS011;9226;47.858;9.594;2022-08-19T00:04:16;13.30;;;7.37;;
18200;SDS011;9226;47.858;9.594;2022-08-19T00:06:44;17.57;;;9.30;;
18200;SDS011;9226;47.858;9.594;2022-08-19T00:09:12;19.97;;;10.23;;
18200;SDS011;9226;47.858;9.594;2022-08-19T00:11:39;18.53;;;10.63;;
18200;SDS011;9226;47.858;9.594;2022-08-19T00:14:07;20.20;;;11.73;;
18200;SDS011;9226;47.858;9.594;2022-08-19T00:16:35;19.80;;;11.33;;
18200;SDS011;9226;47.858;9.594;2022-08-19T00:19:01;24.40;;;12.93;;
18200;SDS011;9226;47.858;9.594;2022-08-19T00:21:26;24.63;;;11.70;;
18200;SDS011;9226;47.858;9.594;2022-08-19T00:23:52;23.93;;;12.77;;
18200;SDS011;9226;47.858;9.594;2022-08-19T00:26:19;22.70;;;12.20;;
18200;SDS011;9226;47.858;9.594;2022-08-19T00:28:45;22.93;;;12.30;;
18200;SDS011;9226;47.858;9.594;2022-08-19T00:31:11;23.20;;;11.93;;
18200;SDS011;9226;47.858;9.594;2022-08-19T00:33:36;20.57;;;11.53;;
18200;SDS011;9226;47.858;9.594;2022-08-19T00:36:05;22.27;;;11.67;;
18200;SDS011;9226;47.858;9.594;2022-08-19T00:38:32;25.00;;;12.87;;
18200;SDS011;9226;47.858;9.594;2022-08-19T00:40:59;20.93;;;11.80;;
18200;SDS011;9226;47.858;9.594;2022-08-19T00:43:25;22.60;;;12.00;;
18200;SDS011;9226;47.858;9.594;2022-08-19T00:45:52;23.17;;;12.10;;
18200;SDS011;9226;47.858;9.594;2022-08-19T00:48:18;20.97;;;11.77;;
18200;SDS011;9226;47.858;9.594;2022-08-19T00:50:46;22.20;;;11.60;;
18200;SDS011;9226;47.858;9.594;2022-08-19T00:53:14;23.60;;;12.30;;
18200;SDS011;9226;47.858;9.594;2022-08-19T00:55:47;24.83;;;12.60;;
18200;SDS011;9226;47.858;9.594;2022-08-19T00:58:15;23.33;;;12.47;;
18200;SDS011;9226;47.858;9.594;2022-08-19T01:00:43;23.13;;;12.53;;
18200;SDS011;9226;47.858;9.594;2022-08-19T01:03:10;24.20;;;12.73;;
18200;SDS011;9226;47.858;9.594;2022-08-19T01:05:38;21.97;;;11.87;;
18200;SDS011;9226;47.858;9.594;2022-08-19T01:08:06;22.43;;;12.80;;
18200;SDS011;9226;47.858;9.594;2022-08-19T01:10:33;25.13;;;11.97;;
18200;SDS011;9226;47.858;9.594;2022-08-19T01:13:04;23.60;;;12.47;;
18200;SDS011;9226;47.858;9.594;2022-08-19T01:15:31;23.10;;;12.13;;
18200;SDS011;9226;47.858;9.594;2022-08-19T01:18:05;25.97;;;12.97;;
18200;SDS011;9226;47.858;9.594;2022-08-19T01:20:34;23.70;;;12.00;;
18200;SDS011;9226;47.858;9.594;2022-08-19T01:22:59;24.83;;;12.77;;
18200;SDS011;9226;47.858;9.594;2022-08-19T01:25:29;24.83;;;13.63;;
18200;SDS011;9226;47.858;9.594;2022-08-19T01:27:58;25.87;;;12.40;;
18200;SDS011;9226;47.858;9.594;2022-08-19T01:30:27;26.83;;;14.23;;
18200;SDS011;9226;47.858;9.594;2022-08-19T01:32:55;27.03;;;14.70;;
18200;SDS011;9226;47.858;9.594;2022-08-19T01:35:22;27.30;;;14.10;;
18200;SDS011;9226;47.858;9.594;2022-08-19T01:37:59;27.80;;;13.80;;
18200;SDS011;9226;47.858;9.594;2022-08-19T01:40:29;29.30;;;14.70;;
18200;SDS011;9226;47.858;9.594;2022-08-19T01:42:58;27.83;;;14.53;;
18200;SDS011;9226;47.858;9.594;2022-08-19T01:45:25;29.50;;;14.13;;
18200;SDS011;9226;47.858;9.594;2022-08-19T01:47:51;31.80;;;14.60;;
18200;SDS011;9226;47.858;9.594;2022-08-19T01:50:18;27.73;;;14.17;;
18200;SDS011;9226;47.858;9.594;2022-08-19T01:52:44;27.77;;;14.00;;
18200;SDS011;9226;47.858;9.594;2022-08-19T01:55:15;31.73;;;14.57;;
18200;SDS011;9226;47.858;9.594;2022-08-19T01:57:43;31.73;;;15.20;;
18200;SDS011;9226;47.858;9.594;2022-08-19T02:00:12;30.93;;;14.77;;
18200;SDS011;9226;47.858;9.594;2022-08-19T02:02:40;32.47;;;15.87;;
18200;SDS011;9226;47.858;9.594;2022-08-19T02:05:06;27.17;;;14.53;;
18200;SDS011;9226;47.858;9.594;2022-08-19T02:07:33;30.00;;;14.37;;
18200;SDS011;9226;47.858;9.594;2022-08-19T02:10:03;32.00;;;15.47;;
18200;SDS011;9226;47.858;9.594;2022-08-19T02:12:34;30.47;;;14.80;;
18200;SDS011;9226;47.858;9.594;2022-08-19T02:15:00;32.80;;;15.60;;
18200;SDS011;9226;47.858;9.594;2022-08-19T02:17:27;26.70;;;13.20;;
18200;SDS011;9226;47.858;9.594;2022-08-19T02:19:53;27.57;;;13.63;;
18200;SDS011;9226;47.858;9.594;2022-08-19T02:22:19;27.43;;;13.60;;
18200;SDS011;9226;47.858;9.594;2022-08-19T02:24:45;25.80;;;13.40;;
18200;SDS011;9226;47.858;9.594;2022-08-19T02:27:11;28.13;;;14.10;;
18200;SDS011;9226;47.858;9.594;2022-08-19T02:29:36;26.87;;;14.23;;
18200;SDS011;9226;47.858;9.594;2022-08-19T02:32:02;27.10;;;12.73;;
18200;SDS011;9226;47.858;9.594;2022-08-19T02:34:28;25.43;;;14.03;;
18200;SDS011;9226;47.858;9.594;2022-08-19T02:36:54;27.20;;;14.00;;
18200;SDS011;9226;47.858;9.594;2022-08-19T02:39:19;26.30;;;14.00;;
18200;SDS011;9226;47.858;9.594;2022-08-19T02:41:44;28.23;;;13.70;;
18200;SDS011;9226;47.858;9.594;2022-08-19T02:44:10;33.13;;;14.90;;
18200;SDS011;9226;47.858;9.594;2022-08-19T02:46:35;30.17;;;14.63;;
18200;SDS011;9226;47.858;9.594;2022-08-19T02:49:03;29.70;;;14.33;;
18200;SDS011;9226;47.858;9.594;2022-08-19T02:51:32;27.37;;;13.97;;
18200;SDS011;9226;47.858;9.594;2022-08-19T02:54:00;25.50;;;13.17;;
18200;SDS011;9226;47.858;9.594;2022-08-19T02:56:26;24.83;;;13.57;;
18200;SDS011;9226;47.858;9.594;2022-08-19T02:58:52;28.43;;;14.67;;
18200;SDS011;9226;47.858;9.594;2022-08-19T03:01:21;27.90;;;14.40;;
18200;SDS011;9226;47.858;9.594;2022-08-19T03:03:46;27.70;;;14.90;;
18200;SDS011;9226;47.858;9.594;2022-08-19T03:06:13;28.97;;;15.03;;
18200;SDS011;9226;47.858;9.594;2022-08-19T03:08:41;26.50;;;13.63;;
18200;SDS011;9226;47.858;9.594;2022-08-19T03:11:18;32.33;;;14.93;;
18200;SDS011;9226;47.858;9.594;2022-08-19T03:13:45;29.40;;;14.33;;
18200;SDS011;9226;47.858;9.594;2022-08-19T03:16:14;29.87;;;14.83;;
18200;SDS011;9226;47.858;9.594;2022-08-19T03:18:40;30.77;;;14.53;;
18200;SDS011;9226;47.858;9.594;2022-08-19T03:21:06;28.50;;;13.43;;
18200;SDS011;9226;47.858;9.594;2022-08-19T03:23:31;41.27;;;14.37;;
18200;SDS011;9226;47.858;9.594;2022-08-19T03:25:58;39.47;;;14.10;;
18200;SDS011;9226;47.858;9.594;2022-08-19T03:28:24;28.10;;;13.97;;
18200;SDS011;9226;47.858;9.594;2022-08-19T03:30:57;27.33;;;13.53;;
18200;SDS011;9226;47.858;9.594;2022-08-19T03:33:30;29.77;;;13.00;;
18200;SDS011;9226;47.858;9.594;2022-08-19T03:38:34;26.93;;;13.00;;
18200;SDS011;9226;47.858;9.594;2022-08-19T03:41:03;22.47;;;12.30;;
18200;SDS011;9226;47.858;9.594;2022-08-19T03:43:34;26.73;;;13.20;;
18200;SDS011;9226;47.858;9.594;2022-08-19T03:46:05;29.50;;;13.07;;
18200;SDS011;9226;47.858;9.594;2022-08-19T03:48:39;22.50;;;12.07;;
18200;SDS011;9226;47.858;9.594;2022-08-19T03:51:05;27.17;;;12.20;;
18200;SDS011;9226;47.858;9.594;2022-08-19T03:53:32;25.90;;;12.47;;
18200;SDS011;9226;47.858;9.594;2022-08-19T03:55:59;20.30;;;11.57;;
18200;SDS011;9226;47.858;9.594;2022-08-19T03:58:25;20.17;;;10.73;;
18200;SDS011;9226;47.858;9.594;2022-08-19T04:00:53;21.00;;;10.53;;
18200;SDS011;9226;47.858;9.594;2022-08-19T04:03:23;19.47;;;10.60;;
18200;SDS011;9226;47.858;9.594;2022-08-19T04:05:49;20.00;;;10.67;;
18200;SDS011;9226;47.858;9.594;2022-08-19T04:08:15;22.97;;;11.27;;
18200;SDS011;9226;47.858;9.594;2022-08-19T04:10:45;23.83;;;11.30;;
18200;SDS011;9226;47.858;9.594;2022-08-19T04:13:12;23.77;;;11.63;;
18200;SDS011;9226;47.858;9.594;2022-08-19T04:15:39;21.13;;;11.37;;
18200;SDS011;9226;47.858;9.594;2022-08-19T04:18:07;21.20;;;11.77;;
18200;SDS011;9226;47.858;9.594;2022-08-19T04:20:44;21.93;;;10.90;;
18200;SDS011;9226;47.858;9.594;2022-08-19T04:23:11;21.63;;;11.63;;
18200;SDS011;9226;47.858;9.594;2022-08-19T04:25:39;22.80;;;11.80;;
18200;SDS011;9226;47.858;9.594;2022-08-19T04:28:06;24.17;;;12.53;;
18200;SDS011;9226;47.858;9.594;2022-08-19T04:30:40;25.73;;;12.70;;
18200;SDS011;9226;47.858;9.594;2022-08-19T04:33:07;23.90;;;12.73;;
18200;SDS011;9226;47.858;9.594;2022-08-19T04:35:39;23.67;;;12.37;;
18200;SDS011;9226;47.858;9.594;2022-08-19T04:38:07;24.00;;;12.13;;
18200;SDS011;9226;47.858;9.594;2022-08-19T04:40:33;24.97;;;13.20;;
18200;SDS011;9226;47.858;9.594;2022-08-19T04:43:17;27.13;;;13.53;;
18200;SDS011;9226;47.858;9.594;2022-08-19T04:45:43;27.17;;;13.63;;
18200;SDS011;9226;47.858;9.594;2022-08-19T04:48:11;29.60;;;13.77;;
18200;SDS011;9226;47.858;9.594;2022-08-19T04:50:39;29.33;;;14.60;;
18200;SDS011;9226;47.858;9.594;2022-08-19T04:53:06;29.07;;;14.73;;
18200;SDS011;9226;47.858;9.594;2022-08-19T04:55:31;30.67;;;14.77;;
18200;SDS011;9226;47.858;9.594;2022-08-19T04:57:57;33.80;;;13.87;;
18200;SDS011;9226;47.858;9.594;2022-08-19T05:00:22;34.00;;;13.50;;
18200;SDS011;9226;47.858;9.594;2022-08-19T05:02:48;33.40;;;13.53;;
18200;SDS011;9226;47.858;9.594;2022-08-19T05:05:14;28.47;;;13.70;;
18200;SDS011;9226;47.858;9.594;2022-08-19T05:07:40;30.07;;;14.00;;
18200;SDS011;9226;47.858;9.594;2022-08-19T05:10:06;28.30;;;13.00;;
18200;SDS011;9226;47.858;9.594;2022-08-19T05:12:32;28.57;;;14.40;;
18200;SDS011;9226;47.858;9.594;2022-08-19T05:14:58;25.33;;;12.43;;
18200;SDS011;9226;47.858;9.594;2022-08-19T05:17:25;29.80;;;13.10;;
18200;SDS011;9226;47.858;9.594;2022-08-19T05:19:51;505.43;;;22.70;;
18200;SDS011;9226;47.858;9.594;2022-08-19T05:22:35;297.70;;;17.77;;
18200;SDS011;9226;47.858;9.594;2022-08-19T05:25:05;112.67;;;15.77;;
18200;SDS011;9226;47.858;9.594;2022-08-19T05:27:37;134.73;;;15.90;;
18200;SDS011;9226;47.858;9.594;2022-08-19T05:30:02;77.10;;;14.23;;
18200;SDS011;9226;47.858;9.594;2022-08-19T05:32:30;34.90;;;13.93;;
18200;SDS011;9226;47.858;9.594;2022-08-19T05:34:55;44.33;;;13.57;;
18200;SDS011;9226;47.858;9.594;2022-08-19T05:37:21;30.03;;;14.37;;
18200;SDS011;9226;47.858;9.594;2022-08-19T05:39:47;27.80;;;13.20;;
18200;SDS011;9226;47.858;9.594;2022-08-19T05:42:14;26.30;;;13.10;;
18200;SDS011;9226;47.858;9.594;2022-08-19T05:44:41;27.13;;;12.90;;
18200;SDS011;9226;47.858;9.594;2022-08-19T05:47:09;30.43;;;13.77;;
18200;SDS011;9226;47.858;9.594;2022-08-19T05:49:37;29.60;;;14.00;;
18200;SDS011;9226;47.858;9.594;2022-08-19T05:52:04;31.93;;;14.93;;
18200;SDS011;9226;47.858;9.594;2022-08-19T05:54:31;31.57;;;13.87;;
18200;SDS011;9226;47.858;9.594;2022-08-19T05:56:56;31.27;;;14.30;;
18200;SDS011;9226;47.858;9.594;2022-08-19T05:59:22;28.80;;;13.97;;
18200;SDS011;9226;47.858;9.594;2022-08-19T06:01:49;32.43;;;14.17;;
18200;SDS011;9226;47.858;9.594;2022-08-19T06:04:16;25.90;;;13.57;;
18200;SDS011;9226;47.858;9.594;2022-08-19T06:06:43;30.47;;;14.50;;
18200;SDS011;9226;47.858;9.594;2022-08-19T06:09:11;30.97;;;14.53;;
18200;SDS011;9226;47.858;9.594;2022-08-19T06:11:37;29.17;;;14.43;;
18200;SDS011;9226;47.858;9.594;2022-08-19T06:14:10;28.97;;;14.43;;
18200;SDS011;9226;47.858;9.594;2022-08-19T06:16:38;34.43;;;15.27;;
18200;SDS011;9226;47.858;9.594;2022-08-19T06:19:07;40.40;;;17.53;;
18200;SDS011;9226;47.858;9.594;2022-08-19T06:21:35;42.90;;;18.43;;
18200;SDS011;9226;47.858;9.594;2022-08-19T06:24:02;46.00;;;19.80;;
18200;SDS011;9226;47.858;9.594;2022-08-19T06:26:29;48.87;;;18.90;;
18200;SDS011;9226;47.858;9.594;2022-08-19T06:28:55;46.73;;;19.73;;
18200;SDS011;9226;47.858;9.594;2022-08-19T06:31:22;44.87;;;19.13;;
18200;SDS011;9226;47.858;9.594;2022-08-19T06:33:50;48.93;;;19.63;;
18200;SDS011;9226;47.858;9.594;2022-08-19T06:36:27;48.33;;;19.60;;
18200;SDS011;9226;47.858;9.594;2022-08-19T06:38:56;45.07;;;20.37;;
18200;SDS011;9226;47.858;9.594;2022-08-19T06:41:26;52.43;;;20.63;;
18200;SDS011;9226;47.858;9.594;2022-08-19T06:43:52;52.70;;;20.47;;
18200;SDS011;9226;47.858;9.594;2022-08-19T06:46:19;50.40;;;20.67;;
18200;SDS011;9226;47.858;9.594;2022-08-19T06:48:44;49.80;;;20.10;;
18200;SDS011;9226;47.858;9.594;2022-08-19T06:51:10;49.87;;;20.33;;
18200;SDS011;9226;47.858;9.594;2022-08-19T06:53:36;54.87;;;20.93;;
18200;SDS011;9226;47.858;9.594;2022-08-19T06:56:01;50.83;;;20.17;;
18200;SDS011;9226;47.858;9.594;2022-08-19T06:58:28;54.40;;;20.27;;
18200;SDS011;9226;47.858;9.594;2022-08-19T07:00:58;49.43;;;21.10;;
18200;SDS011;9226;47.858;9.594;2022-08-19T07:03:31;49.27;;;20.37;;
18200;SDS011;9226;47.858;9.594;2022-08-19T07:05:58;53.27;;;21.33;;
18200;SDS011;9226;47.858;9.594;2022-08-19T07:08:28;48.83;;;21.03;;
18200;SDS011;9226;47.858;9.594;2022-08-19T07:10:54;53.07;;;21.33;;
18200;SDS011;9226;47.858;9.594;2022-08-19T07:13:19;51.97;;;21.67;;
18200;SDS011;9226;47.858;9.594;2022-08-19T07:15:46;54.07;;;21.83;;
18200;SDS011;9226;47.858;9.594;2022-08-19T07:18:12;53.07;;;20.83;;
18200;SDS011;9226;47.858;9.594;2022-08-19T07:20:38;49.90;;;21.20;;
18200;SDS011;9226;47.858;9.594;2022-08-19T07:23:05;50.47;;;21.17;;
18200;SDS011;9226;47.858;9.594;2022-08-19T07:25:30;52.13;;;21.77;;
18200;SDS011;9226;47.858;9.594;2022-08-19T07:27:55;51.10;;;21.27;;
18200;SDS011;9226;47.858;9.594;2022-08-19T07:30:21;53.17;;;21.40;;
18200;SDS011;9226;47.858;9.594;2022-08-19T07:32:48;57.20;;;21.97;;
18200;SDS011;9226;47.858;9.594;2022-08-19T07:35:15;52.53;;;21.90;;
18200;SDS011;9226;47.858;9.594;2022-08-19T07:37:44;59.40;;;21.13;;
18200;SDS011;9226;47.858;9.594;2022-08-19T07:40:11;52.37;;;22.03;;
18200;SDS011;9226;47.858;9.594;2022-08-19T07:42:37;54.57;;;22.13;;
18200;SDS011;9226;47.858;9.594;2022-08-19T07:45:03;53.00;;;20.90;;
18200;SDS011;9226;47.858;9.594;2022-08-19T07:47:29;55.33;;;21.57;;
18200;SDS011;9226;47.858;9.594;2022-08-19T07:49:55;54.53;;;22.77;;
18200;SDS011;9226;47.858;9.594;2022-08-19T07:52:21;50.87;;;22.37;;
18200;SDS011;9226;47.858;9.594;2022-08-19T07:54:47;55.10;;;23.20;;
18200;SDS011;9226;47.858;9.594;2022-08-19T07:57:13;50.93;;;22.03;;
18200;SDS011;9226;47.858;9.594;2022-08-19T07:59:38;54.33;;;22.77;;
18200;SDS011;9226;47.858;9.594;2022-08-19T08:02:04;54.30;;;22.03;;
18200;SDS011;9226;47.858;9.594;2022-08-19T08:04:30;61.23;;;23.33;;
18200;SDS011;9226;47.858;9.594;2022-08-19T08:07:14;55.73;;;22.40;;
18200;SDS011;9226;47.858;9.594;2022-08-19T08:09:58;60.07;;;22.77;;
18200;SDS011;9226;47.858;9.594;2022-08-19T08:12:26;50.13;;;21.67;;
18200;SDS011;9226;47.858;9.594;2022-08-19T08:14:57;47.77;;;21.80;;
18200;SDS011;9226;47.858;9.594;2022-08-19T08:17:25;63.90;;;22.97;;
18200;SDS011;9226;47.858;9.594;2022-08-19T08:19:53;56.93;;;22.70;;
18200;SDS011;9226;47.858;9.594;2022-08-19T08:22:20;55.40;;;21.73;;
18200;SDS011;9226;47.858;9.594;2022-08-19T08:25:09;50.67;;;21.80;;
18200;SDS011;9226;47.858;9.594;2022-08-19T08:27:40;53.53;;;21.80;;
18200;SDS011;9226;47.858;9.594;2022-08-19T08:30:07;52.17;;;21.37;;
18200;SDS011;9226;47.858;9.594;2022-08-19T08:32:39;58.13;;;23.90;;
18200;SDS011;9226;47.858;9.594;2022-08-19T08:35:06;51.00;;;22.13;;
18200;SDS011;9226;47.858;9.594;2022-08-19T08:37:33;56.83;;;23.43;;
18200;SDS011;9226;47.858;9.594;2022-08-19T08:39:58;54.30;;;21.77;;
18200;SDS011;9226;47.858;9.594;2022-08-19T08:42:28;57.63;;;22.77;;
18200;SDS011;9226;47.858;9.594;2022-08-19T08:45:00;54.43;;;21.83;;
18200;SDS011;9226;47.858;9.594;2022-08-19T08:47:39;52.53;;;22.07;;
18200;SDS011;9226;47.858;9.594;2022-08-19T08:50:10;58.43;;;23.00;;
18200;SDS011;9226;47.858;9.594;2022-08-19T08:52:43;49.77;;;22.57;;
18200;SDS011;9226;47.858;9.594;2022-08-19T08:55:14;51.37;;;22.13;;
18200;SDS011;9226;47.858;9.594;2022-08-19T09:00:29;50.13;;;21.60;;
18200;SDS011;9226;47.858;9.594;2022-08-19T09:02:57;48.93;;;21.20;;
18200;SDS011;9226;47.858;9.594;2022-08-19T09:05:26;54.93;;;23.27;;
18200;SDS011;9226;47.858;9.594;2022-08-19T09:08:15;51.53;;;22.23;;
18200;SDS011;9226;47.858;9.594;2022-08-19T09:10:55;53.23;;;22.07;;
18200;SDS011;9226;47.858;9.594;2022-08-19T09:13:34;54.90;;;21.50;;
18200;SDS011;9226;47.858;9.594;2022-08-19T09:16:28;47.37;;;21.37;;
18200;SDS011;9226;47.858;9.594;2022-08-19T09:18:56;54.17;;;21.77;;
18200;SDS011;9226;47.858;9.594;2022-08-19T09:21:25;48.27;;;20.83;;
18200;SDS011;9226;47.858;9.594;2022-08-19T09:23:52;53.30;;;21.83;;
18200;SDS011;9226;47.858;9.594;2022-08-19T09:26:19;58.83;;;22.47;;
18200;SDS011;9226;47.858;9.594;2022-08-19T09:28:48;55.87;;;22.43;;
18200;SDS011;9226;47.858;9.594;2022-08-19T09:31:16;51.97;;;22.73;;
18200;SDS011;9226;47.858;9.594;2022-08-19T09:33:47;57.10;;;23.10;;
18200;SDS011;9226;47.858;9.594;2022-08-19T09:36:13;53.13;;;21.80;;
18200;SDS011;9226;47.858;9.594;2022-08-19T09:38:40;51.33;;;21.83;;
18200;SDS011;9226;47.858;9.594;2022-08-19T09:41:08;46.47;;;21.03;;
18200;SDS011;9226;47.858;9.594;2022-08-19T09:43:41;51.33;;;20.83;;
18200;SDS011;9226;47.858;9.594;2022-08-19T09:46:10;48.03;;;20.63;;
18200;SDS011;9226;47.858;9.594;2022-08-19T09:48:37;51.70;;;22.63;;
18200;SDS011;9226;47.858;9.594;2022-08-19T09:51:17;51.67;;;20.60;;
18200;SDS011;9226;47.858;9.594;2022-08-19T09:53:45;43.93;;;20.63;;
18200;SDS011;9226;47.858;9.594;2022-08-19T09:56:12;44.80;;;20.30;;
18200;SDS011;9226;47.858;9.594;2022-08-19T09:58:38;48.43;;;20.47;;
18200;SDS011;9226;47.858;9.594;2022-08-19T10:01:06;48.50;;;20.53;;
18200;SDS011;9226;47.858;9.594;2022-08-19T10:03:32;48.53;;;20.67;;
18200;SDS011;9226;47.858;9.594;2022-08-19T10:06:00;42.83;;;19.20;;
18200;SDS011;9226;47.858;9.594;2022-08-19T10:08:29;46.77;;;19.13;;
18200;SDS011;9226;47.858;9.594;2022-08-19T10:11:05;44.50;;;19.93;;
18200;SDS011;9226;47.858;9.594;2022-08-19T10:13:33;45.23;;;19.97;;
18200;SDS011;9226;47.858;9.594;2022-08-19T10:16:08;45.50;;;19.60;;
18200;SDS011;9226;47.858;9.594;2022-08-19T10:18:35;41.50;;;19.33;;
18200;SDS011;9226;47.858;9.594;2022-08-19T10:21:11;44.07;;;19.63;;
18200;SDS011;9226;47.858;9.594;2022-08-19T10:23:40;45.40;;;19.40;;
18200;SDS011;9226;47.858;9.594;2022-08-19T10:26:10;47.07;;;20.00;;
18200;SDS011;9226;47.858;9.594;2022-08-19T10:28:37;42.80;;;18.90;;
18200;SDS011;9226;47.858;9.594;2022-08-19T10:31:16;44.83;;;19.03;;
18200;SDS011;9226;47.858;9.594;2022-08-19T10:34:07;40.37;;;19.00;;
18200;SDS011;9226;47.858;9.594;2022-08-19T10:36:35;41.10;;;18.90;;
18200;SDS011;9226;47.858;9.594;2022-08-19T10:39:03;39.87;;;18.70;;
18200;SDS011;9226;47.858;9.594;2022-08-19T10:41:32;41.13;;;19.13;;
18200;SDS011;9226;47.858;9.594;2022-08-19T10:44:04;42.10;;;18.60;;
18200;SDS011;9226;47.858;9.594;2022-08-19T10:46:32;41.97;;;19.23;;
18200;SDS011;9226;47.858;9.594;2022-08-19T10:49:00;39.10;;;17.30;;
18200;SDS011;9226;47.858;9.594;2022-08-19T10:51:27;43.90;;;18.33;;
18200;SDS011;9226;47.858;9.594;2022-08-19T10:54:12;38.97;;;17.37;;
18200;SDS011;9226;47.858;9.594;2022-08-19T10:56:37;35.17;;;17.83;;
18200;SDS011;9226;47.858;9.594;2022-08-19T10:59:25;40.23;;;16.73;;
18200;SDS011;9226;47.858;9.594;2022-08-19T11:01:53;36.43;;;16.47;;
18200;SDS011;9226;47.858;9.594;2022-08-19T11:04:23;38.53;;;16.57;;
18200;SDS011;9226;47.858;9.594;2022-08-19T11:06:49;35.50;;;16.67;;
18200;SDS011;9226;47.858;9.594;2022-08-19T11:09:15;33.97;;;16.77;;
18200;SDS011;9226;47.858;9.594;2022-08-19T11:11:43;36.13;;;16.67;;
18200;SDS011;9226;47.858;9.594;2022-08-19T11:14:09;32.33;;;16.20;;
18200;SDS011;9226;47.858;9.594;2022-08-19T11:16:36;31.93;;;15.40;;
18200;SDS011;9226;47.858;9.594;2022-08-19T11:19:04;33.17;;;14.83;;
18200;SDS011;9226;47.858;9.594;2022-08-19T11:21:34;36.00;;;16.37;;
18200;SDS011;9226;47.858;9.594;2022-08-19T11:24:06;34.70;;;16.17;;
18200;SDS011;9226;47.858;9.594;2022-08-19T11:26:33;31.13;;;15.00;;
18200;SDS011;9226;47.858;9.594;2022-08-19T11:29:00;33.77;;;15.83;;
18200;SDS011;9226;47.858;9.594;2022-08-19T11:31:28;29.87;;;14.07;;
18200;SDS011;9226;47.858;9.594;2022-08-19T11:33:59;37.43;;;14.87;;
18200;SDS011;9226;47.858;9.594;2022-08-19T11:36:26;28.57;;;14.90;;
18200;SDS011;9226;47.858;9.594;2022-08-19T11:38:52;33.23;;;15.30;;
18200;SDS011;9226;47.858;9.594;2022-08-19T11:41:20;34.43;;;14.80;;
18200;SDS011;9226;47.858;9.594;2022-08-19T11:43:48;29.13;;;13.93;;
18200;SDS011;9226;47.858;9.594;2022-08-19T11:46:15;30.20;;;13.37;;
18200;SDS011;9226;47.858;9.594;2022-08-19T11:48:41;28.33;;;14.10;;
18200;SDS011;9226;47.858;9.594;2022-08-19T11:51:08;26.13;;;13.10;;
18200;SDS011;9226;47.858;9.594;2022-08-19T11:53:36;27.07;;;13.90;;
18200;SDS011;9226;47.858;9.594;2022-08-19T11:56:03;29.47;;;13.67;;
18200;SDS011;9226;47.858;9.594;2022-08-19T11:58:30;27.43;;;13.10;;
18200;SDS011;9226;47.858;9.594;2022-08-19T12:00:55;27.47;;;12.73;;
18200;SDS011;9226;47.858;9.594;2022-08-19T12:03:21;21.03;;;11.57;;
18200;SDS011;9226;47.858;9.594;2022-08-19T12:05:47;25.17;;;12.53;;
18200;SDS011;9226;47.858;9.594;2022-08-19T12:08:12;22.30;;;10.70;;
18200;SDS011;9226;47.858;9.594;2022-08-19T12:10:39;23.60;;;11.13;;
18200;SDS011;9226;47.858;9.594;2022-08-19T12:13:07;23.17;;;11.70;;
18200;SDS011;9226;47.858;9.594;2022-08-19T12:15:37;19.63;;;9.93;;
18200;SDS011;9226;47.858;9.594;2022-08-19T12:18:05;20.37;;;9.63;;
18200;SDS011;9226;47.858;9.594;2022-08-19T12:20:34;20.90;;;8.83;;
18200;SDS011;9226;47.858;9.594;2022-08-19T12:23:00;20.77;;;9.53;;
18200;SDS011;9226;47.858;9.594;2022-08-19T12:25:26;16.43;;;9.00;;
18200;SDS011;9226;47.858;9.594;2022-08-19T12:27:51;18.43;;;8.80;;
18200;SDS011;9226;47.858;9.594;2022-08-19T12:30:17;15.03;;;8.23;;
18200;SDS011;9226;47.858;9.594;2022-08-19T12:32:42;19.17;;;8.93;;
18200;SDS011;9226;47.858;9.594;2022-08-19T12:35:08;14.63;;;8.73;;
18200;SDS011;9226;47.858;9.594;2022-08-19T12:37:36;16.70;;;8.67;;
18200;SDS011;9226;47.858;9.594;2022-08-19T12:40:02;20.60;;;8.70;;
18200;SDS011;9226;47.858;9.594;2022-08-19T12:42:28;15.33;;;8.70;;
18200;SDS011;9226;47.858;9.594;2022-08-19T12:44:55;15.27;;;7.90;;
18200;SDS011;9226;47.858;9.594;2022-08-19T12:47:20;15.60;;;8.53;;
18200;SDS011;9226;47.858;9.594;2022-08-19T12:49:48;16.87;;;9.07;;
18200;SDS011;9226;47.858;9.594;2022-08-19T12:52:15;23.50;;;11.00;;
18200;SDS011;9226;47.858;9.594;2022-08-19T12:54:41;28.80;;;14.73;;
18200;SDS011;9226;47.858;9.594;2022-08-19T12:57:08;32.90;;;16.63;;
18200;SDS011;9226;47.858;9.594;2022-08-19T12:59:35;24.30;;;12.73;;
18200;SDS011;9226;47.858;9.594;2022-08-19T13:02:04;36.30;;;17.63;;
18200;SDS011;9226;47.858;9.594;2022-08-19T13:04:32;28.07;;;14.53;;
18200;SDS011;9226;47.858;9.594;2022-08-19T13:07:05;52.40;;;24.57;;
18200;SDS011;9226;47.858;9.594;2022-08-19T13:09:31;27.57;;;13.63;;
18200;SDS011;9226;47.858;9.594;2022-08-19T13:11:57;18.27;;;9.50;;
18200;SDS011;9226;47.858;9.594;2022-08-19T13:14:22;14.50;;;8.37;;
18200;SDS011;9226;47.858;9.594;2022-08-19T13:16:48;14.77;;;8.20;;
18200;SDS011;9226;47.858;9.594;2022-08-19T13:19:13;14.70;;;8.30;;
18200;SDS011;9226;47.858;9.594;2022-08-19T13:21:39;17.93;;;8.20;;
18200;SDS011;9226;47.858;9.594;2022-08-19T13:24:04;12.67;;;7.80;;
18200;SDS011;9226;47.858;9.594;2022-08-19T13:26:29;16.87;;;8.47;;
18200;SDS011;9226;47.858;9.594;2022-08-19T13:28:55;16.80;;;8.00;;
18200;SDS011;9226;47.858;9.594;2022-08-19T13:31:39;15.27;;;7.67;;
18200;SDS011;9226;47.858;9.594;2022-08-19T13:34:30;15.03;;;7.70;;
18200;SDS011;9226;47.858;9.594;2022-08-19T13:36:58;12.90;;;7.87;;
18200;SDS011;9226;47.858;9.594;2022-08-19T13:39:25;14.10;;;7.93;;
18200;SDS011;9226;47.858;9.594;2022-08-19T13:41:52;16.40;;;8.43;;
18200;SDS011;9226;47.858;9.594;2022-08-19T13:44:18;14.63;;;8.63;;
18200;SDS011;9226;47.858;9.594;2022-08-19T13:46:45;14.33;;;8.07;;
18200;SDS011;9226;47.858;9.594;2022-08-19T13:49:12;16.13;;;9.20;;
18200;SDS011;9226;47.858;9.594;2022-08-19T13:51:39;17.33;;;9.57;;
18200;SDS011;9226;47.858;9.594;2022-08-19T13:54:06;16.87;;;9.17;;
18200;SDS011;9226;47.858;9.594;2022-08-19T13:56:33;20.27;;;9.80;;
18200;SDS011;9226;47.858;9.594;2022-08-19T13:59:00;20.10;;;9.80;;
18200;SDS011;9226;47.858;9.594;2022-08-19T14:01:25;18.67;;;10.30;;
18200;SDS011;9226;47.858;9.594;2022-08-19T14:03:51;19.23;;;10.77;;
18200;SDS011;9226;47.858;9.594;2022-08-19T14:06:18;17.63;;;10.20;;
18200;SDS011;9226;47.858;9.594;2022-08-19T14:08:44;20.57;;;10.50;;
18200;SDS011;9226;47.858;9.594;2022-08-19T14:11:10;25.10;;;11.40;;
18200;SDS011;9226;47.858;9.594;2022-08-19T14:13:36;20.53;;;10.80;;
18200;SDS011;9226;47.858;9.594;2022-08-19T14:16:05;18.50;;;10.93;;
18200;SDS011;9226;47.858;9.594;2022-08-19T14:18:32;21.70;;;11.43;;
18200;SDS011;9226;47.858;9.594;2022-08-19T14:20:58;19.73;;;11.70;;
18200;SDS011;9226;47.858;9.594;2022-08-19T14:23:23;21.10;;;12.17;;
18200;SDS011;9226;47.858;9.594;2022-08-19T14:25:48;25.17;;;13.37;;
18200;SDS011;9226;47.858;9.594;2022-08-19T14:28:14;22.17;;;12.63;;
18200;SDS011;9226;47.858;9.594;2022-08-19T14:30:39;23.67;;;12.83;;
18200;SDS011;9226;47.858;9.594;2022-08-19T14:33:05;24.07;;;13.43;;
18200;SDS011;9226;47.858;9.594;2022-08-19T14:35:32;23.03;;;13.00;;
18200;SDS011;9226;47.858;9.594;2022-08-19T14:38:00;27.83;;;13.60;;
18200;SDS011;9226;47.858;9.594;2022-08-19T14:40:28;22.40;;;13.40;;
18200;SDS011;9226;47.858;9.594;2022-08-19T14:42:55;25.50;;;12.97;;
18200;SDS011;9226;47.858;9.594;2022-08-19T14:45:24;23.07;;;12.50;;
18200;SDS011;9226;47.858;9.594;2022-08-19T14:47:52;22.30;;;12.80;;